createdAt,value
2023-02-25T00:00:34.607Z,98258.97
2023-02-25T00:03:01.989Z,98266.47
2023-02-25T00:05:31.695Z,98271.88
2023-02-25T00:07:59.353Z,98274.28
2023-02-25T00:10:25.874Z,98274.19
2023-02-25T00:12:52.812Z,98262.63
2023-02-25T00:15:19.327Z,98271.28
2023-02-25T00:17:46.220Z,98268.06
2023-02-25T00:20:13.829Z,98270.81
2023-02-25T00:22:41.474Z,98272.00
2023-02-25T00:25:09.080Z,98278.31
2023-02-25T00:27:36.294Z,98292.88
2023-02-25T00:30:03.490Z,98288.16
2023-02-25T00:32:29.953Z,98294.22
2023-02-25T00:34:57.388Z,98291.44
2023-02-25T00:37:25.015Z,98303.38
2023-02-25T00:39:51.415Z,98287.94
2023-02-25T00:42:18.721Z,98290.13
2023-02-25T00:44:47.115Z,98295.41
2023-02-25T00:47:14.482Z,98288.69
2023-02-25T00:49:41.275Z,98290.38
2023-02-25T00:52:09.186Z,98287.47
2023-02-25T00:54:36.127Z,98288.44
2023-02-25T00:57:02.659Z,98296.28
2023-02-25T00:59:29.330Z,98289.28
2023-02-25T01:01:56.264Z,98282.16
2023-02-25T01:04:22.802Z,98281.25
2023-02-25T01:06:50.344Z,98277.38
2023-02-25T01:09:16.835Z,98286.16
2023-02-25T01:11:46.107Z,98276.41
2023-02-25T01:14:15.900Z,98288.22
2023-02-25T01:16:44.459Z,98278.72
2023-02-25T01:19:17.236Z,98277.59
2023-02-25T01:21:46.077Z,98280.38
2023-02-25T01:24:14.487Z,98284.84
2023-02-25T01:26:43.013Z,98278.59
2023-02-25T01:29:20.714Z,98277.84
2023-02-25T01:31:48.004Z,98283.75
2023-02-25T01:34:17.671Z,98284.25
2023-02-25T01:36:45.134Z,98281.97
2023-02-25T01:39:13.536Z,98280.00
2023-02-25T01:41:40.332Z,98283.03
2023-02-25T01:44:06.883Z,98282.91
2023-02-25T01:46:33.335Z,98290.97
2023-02-25T01:49:01.394Z,98291.22
2023-02-25T01:51:28.934Z,98292.09
2023-02-25T01:53:58.348Z,98298.09
2023-02-25T01:56:27.375Z,98295.44
2023-02-25T01:58:54.365Z,98284.38
2023-02-25T02:01:24.351Z,98285.09
2023-02-25T02:03:52.157Z,98290.03
2023-02-25T02:06:24.365Z,98292.56
2023-02-25T02:08:51.374Z,98285.44
2023-02-25T02:11:17.973Z,98290.63
2023-02-25T02:13:49.897Z,98285.59
2023-02-25T02:16:31.199Z,98284.72
2023-02-25T02:19:04.691Z,98290.25
2023-02-25T02:21:55.031Z,98291.50
2023-02-25T02:24:30.749Z,98291.72
2023-02-25T02:27:00.032Z,98299.69
2023-02-25T02:29:33.531Z,98287.50
2023-02-25T02:32:15.904Z,98294.25
2023-02-25T02:35:04.380Z,98290.63
2023-02-25T02:37:40.289Z,98293.41
2023-02-25T02:40:41.329Z,98291.50
2023-02-25T02:43:29.529Z,98286.53
2023-02-25T02:46:03.716Z,98298.09
2023-02-25T02:48:57.839Z,98294.97
2023-02-25T02:51:59.004Z,98295.25
2023-02-25T02:54:30.770Z,98297.75
2023-02-25T02:57:00.176Z,98291.97
2023-02-25T02:59:42.470Z,98304.13
2023-02-25T03:02:34.062Z,98304.59
2023-02-25T03:05:06.997Z,98300.28
2023-02-25T03:07:38.765Z,98303.06
2023-02-25T03:10:07.414Z,98300.28
2023-02-25T03:12:34.346Z,98306.53
2023-02-25T03:15:00.755Z,98302.81
2023-02-25T03:17:31.489Z,98304.88
2023-02-25T03:20:14.132Z,98304.38
2023-02-25T03:22:44.065Z,98304.88
2023-02-25T03:25:47.107Z,98304.13
2023-02-25T03:28:17.488Z,98299.69
2023-02-25T03:30:51.014Z,98303.88
2023-02-25T03:33:48.822Z,98298.22
2023-02-25T03:36:30.514Z,98315.72
2023-02-25T03:39:03.067Z,98309.09
2023-02-25T03:41:35.301Z,98324.59
2023-02-25T03:44:07.856Z,98312.06
2023-02-25T03:46:35.894Z,98311.84
2023-02-25T03:49:06.001Z,98315.44
2023-02-25T03:51:38.203Z,98310.63
2023-02-25T03:54:07.653Z,98328.97
2023-02-25T03:56:42.794Z,98322.34
2023-02-25T03:59:09.556Z,98316.28
2023-02-25T04:01:38.683Z,98315.94
2023-02-25T04:04:05.551Z,98322.81
2023-02-25T04:06:32.137Z,98322.06
2023-02-25T04:08:59.795Z,98330.13
2023-02-25T04:11:26.269Z,98327.75
2023-02-25T04:13:54.554Z,98317.88
2023-02-25T04:16:21.203Z,98320.03
2023-02-25T04:18:49.008Z,98316.78
2023-02-25T04:21:38.376Z,98323.16
2023-02-25T04:24:07.134Z,98322.06
2023-02-25T04:26:36.889Z,98326.78
2023-02-25T04:29:04.062Z,98337.59
2023-02-25T04:31:30.599Z,98317.03
2023-02-25T04:33:58.206Z,98325.81
2023-02-25T04:36:28.489Z,98323.88
2023-02-25T04:38:56.479Z,98331.97
2023-02-25T04:41:24.543Z,98340.84
2023-02-25T04:43:51.162Z,98334.72
2023-02-25T04:46:17.626Z,98336.78
2023-02-25T04:48:44.188Z,98338.78
2023-02-25T04:51:11.040Z,98349.38
2023-02-25T04:53:37.459Z,98345.78
2023-02-25T04:56:08.896Z,98346.00
2023-02-25T04:58:37.240Z,98340.94
2023-02-25T05:01:05.960Z,98340.00
2023-02-25T05:03:33.982Z,98332.03
2023-02-25T05:06:00.751Z,98341.66
2023-02-25T05:08:27.739Z,98335.91
2023-02-25T05:10:54.465Z,98337.56
2023-02-25T05:13:21.828Z,98331.22
2023-02-25T05:15:48.449Z,98330.59
2023-02-25T05:18:15.046Z,98340.00
2023-02-25T05:20:43.157Z,98340.22
2023-02-25T05:23:10.397Z,98344.94
2023-02-25T05:25:41.207Z,98343.59
2023-02-25T05:28:09.268Z,98328.34
2023-02-25T05:30:37.852Z,98338.78
2023-02-25T05:33:05.691Z,98338.66
2023-02-25T05:35:32.870Z,98340.34
2023-02-25T05:37:59.866Z,98331.81
2023-02-25T05:40:26.556Z,98328.19
2023-02-25T05:42:53.515Z,98324.22
2023-02-25T05:45:20.366Z,98334.69
2023-02-25T05:47:46.899Z,98329.50
2023-02-25T05:50:13.286Z,98333.13
2023-02-25T05:52:40.160Z,98338.56
2023-02-25T05:55:09.199Z,98340.09
2023-02-25T05:57:36.036Z,98334.91
2023-02-25T06:00:04.717Z,98346.38
2023-02-25T06:02:33.261Z,98342.63
2023-02-25T06:04:59.748Z,98349.63
2023-02-25T06:07:29.624Z,98342.19
2023-02-25T06:10:00.689Z,98343.34
2023-02-25T06:12:33.008Z,98343.34
2023-02-25T06:14:59.876Z,98345.88
2023-02-25T06:17:26.486Z,98349.16
2023-02-25T06:19:53.518Z,98358.06
2023-02-25T06:22:21.737Z,98361.09
2023-02-25T06:24:48.456Z,98362.88
2023-02-25T06:27:16.441Z,98369.16
2023-02-25T06:29:43.069Z,98367.19
2023-02-25T06:32:11.368Z,98374.78
2023-02-25T06:34:38.492Z,98371.31
2023-02-25T06:37:05.664Z,98372.50
2023-02-25T06:39:32.449Z,98375.25
2023-02-25T06:41:59.150Z,98376.63
2023-02-25T06:44:27.140Z,98374.47
2023-02-25T06:46:56.959Z,98381.66
2023-02-25T06:49:24.701Z,98389.38
2023-02-25T06:51:51.121Z,98385.88
2023-02-25T06:54:18.227Z,98398.91
2023-02-25T06:56:45.472Z,98398.28
2023-02-25T06:59:12.222Z,98395.75
2023-02-25T07:01:38.977Z,98401.19
2023-02-25T07:04:05.559Z,98409.38
2023-02-25T07:06:32.162Z,98414.91
2023-02-25T07:08:58.713Z,98409.13
2023-02-25T07:11:30.489Z,98410.22
2023-02-25T07:13:57.576Z,98409.13
2023-02-25T07:16:24.984Z,98417.81
2023-02-25T07:18:51.729Z,98413.84
2023-02-25T07:21:18.354Z,98416.63
2023-02-25T07:23:46.371Z,98418.53
2023-02-25T07:26:13.733Z,98422.03
2023-02-25T07:28:48.177Z,98419.31
2023-02-25T07:31:17.563Z,98419.03
2023-02-25T07:33:46.052Z,98425.06
2023-02-25T07:36:12.717Z,98426.63
2023-02-25T07:38:39.585Z,98425.56
2023-02-25T07:41:08.394Z,98425.44
2023-02-25T07:43:34.976Z,98430.13
2023-02-25T07:46:01.883Z,98430.75
2023-02-25T07:48:28.880Z,98429.16
2023-02-25T07:50:56.357Z,98421.47
2023-02-25T07:53:23.087Z,98422.78
2023-02-25T07:55:50.402Z,98417.38
2023-02-25T07:58:17.705Z,98418.94
2023-02-25T08:00:46.592Z,98421.94
2023-02-25T08:03:13.397Z,98422.66
2023-02-25T08:05:40.128Z,98428.09
2023-02-25T08:08:06.568Z,98434.72
2023-02-25T08:10:33.278Z,98438.34
2023-02-25T08:12:59.747Z,98432.06
2023-02-25T08:15:26.331Z,98440.00
2023-02-25T08:17:56.151Z,98440.84
2023-02-25T08:20:24.226Z,98440.84
2023-02-25T08:22:51.335Z,98450.63
2023-02-25T08:25:18.261Z,98443.88
2023-02-25T08:27:44.649Z,98439.44
2023-02-25T08:30:11.905Z,98439.56
2023-02-25T08:32:38.869Z,98438.59
2023-02-25T08:35:05.688Z,98435.94
2023-02-25T08:37:33.599Z,98436.06
2023-02-25T08:40:00.056Z,98429.31
2023-02-25T08:42:26.603Z,98440.53
2023-02-25T08:44:53.286Z,98428.72
2023-02-25T08:47:19.881Z,98431.03
2023-02-25T08:49:47.492Z,98427.28
2023-02-25T08:52:15.149Z,98428.69
2023-02-25T08:54:41.558Z,98444.88
2023-02-25T08:57:08.713Z,98436.19
2023-02-25T08:59:37.869Z,98442.25
2023-02-25T09:02:15.695Z,98433.41
2023-02-25T09:04:42.297Z,98431.34
2023-02-25T09:07:08.844Z,98440.25
2023-02-25T09:09:35.591Z,98422.16
2023-02-25T09:12:05.111Z,98424.44
2023-02-25T09:14:31.616Z,98426.81
2023-02-25T09:16:58.102Z,98423.22
2023-02-25T09:19:24.673Z,98427.81
2023-02-25T09:21:51.306Z,98418.38
2023-02-25T09:24:17.866Z,98424.88
2023-02-25T09:26:44.281Z,98419.09
2023-02-25T09:29:10.930Z,98415.16
2023-02-25T09:31:39.594Z,98411.19
2023-02-25T09:34:09.000Z,98433.66
2023-02-25T09:36:36.356Z,98431.84
2023-02-25T09:39:03.441Z,98429.19
2023-02-25T09:41:42.065Z,98436.44
2023-02-25T09:44:26.950Z,98455.97
2023-02-25T09:47:05.053Z,98467.00
2023-02-25T09:50:11.557Z,98459.53
2023-02-25T09:52:57.681Z,98478.50
2023-02-25T09:55:32.699Z,98470.81
2023-02-25T09:58:11.342Z,98484.81
2023-02-25T10:00:45.258Z,98477.38
2023-02-25T10:03:32.787Z,98477.28
2023-02-25T10:06:15.328Z,98490.53
2023-02-25T10:08:56.377Z,98499.13
2023-02-25T10:11:57.751Z,98497.31
2023-02-25T10:15:01.753Z,98496.69
2023-02-25T10:17:46.559Z,98502.72
2023-02-25T10:20:34.846Z,98515.47
2023-02-25T10:23:06.748Z,98515.03
2023-02-25T10:25:37.589Z,98507.56
2023-02-25T10:28:11.378Z,98512.53
2023-02-25T10:30:48.921Z,98513.47
2023-02-25T10:33:26.943Z,98516.97
2023-02-25T10:36:09.029Z,98517.94
2023-02-25T10:38:38.138Z,98524.47
2023-02-25T10:41:05.235Z,98516.50
2023-02-25T10:43:34.716Z,98508.56
2023-02-25T10:46:11.302Z,98510.47
2023-02-25T10:48:39.650Z,98509.00
2023-02-25T10:51:12.669Z,98503.16
2023-02-25T10:53:51.842Z,98515.84
2023-02-25T10:56:18.828Z,98515.63
2023-02-25T10:59:02.100Z,98515.09
2023-02-25T11:01:38.996Z,98511.84
2023-02-25T11:04:12.211Z,98512.66
2023-02-25T11:06:42.565Z,98518.00
2023-02-25T11:09:21.050Z,98518.25
2023-02-25T11:12:20.963Z,98510.06
2023-02-25T11:14:47.797Z,98509.00
2023-02-25T11:17:20.323Z,98513.84
2023-02-25T11:19:50.603Z,98512.00
2023-02-25T11:22:30.466Z,98507.22
2023-02-25T11:25:07.026Z,98512.78
2023-02-25T11:27:39.298Z,98525.13
2023-02-25T11:30:08.659Z,98561.81
2023-02-25T11:32:39.981Z,98590.00
2023-02-25T11:35:09.324Z,98573.88
2023-02-25T11:37:45.302Z,98567.72
2023-02-25T11:40:33.746Z,98554.94
2023-02-25T11:43:06.322Z,98553.47
2023-02-25T11:45:40.399Z,98557.00
2023-02-25T11:48:24.246Z,98558.09
2023-02-25T11:51:35.682Z,98554.13
2023-02-25T11:54:20.124Z,98559.44
2023-02-25T11:56:52.370Z,98562.94
2023-02-25T11:59:39.650Z,98550.88
2023-02-25T12:02:24.475Z,98545.34
2023-02-25T12:05:07.126Z,98536.97
2023-02-25T12:07:33.750Z,98546.25
2023-02-25T12:10:15.152Z,98534.91
2023-02-25T12:12:55.675Z,98523.28
2023-02-25T12:15:37.563Z,98532.81
2023-02-25T12:18:33.025Z,98554.41
2023-02-25T12:21:24.907Z,98576.28
2023-02-25T12:24:10.325Z,98572.81
2023-02-25T12:27:01.450Z,98572.63
2023-02-25T12:29:42.814Z,98574.63
2023-02-25T12:32:22.479Z,98572.66
2023-02-25T12:35:07.004Z,98573.34
2023-02-25T12:37:39.301Z,98574.22
2023-02-25T12:40:33.474Z,98571.63
2023-02-25T12:43:35.728Z,98563.56
2023-02-25T12:46:13.124Z,98556.25
2023-02-25T12:48:52.973Z,98550.31
2023-02-25T12:51:28.692Z,98550.66
2023-02-25T12:54:34.521Z,98548.69
2023-02-25T12:57:39.138Z,98557.19
2023-02-25T13:00:17.501Z,98548.25
2023-02-25T13:02:44.345Z,98545.41
2023-02-25T13:05:44.798Z,98542.50
2023-02-25T13:08:24.462Z,98541.09
2023-02-25T13:11:00.608Z,98550.44
2023-02-25T13:13:59.284Z,98543.75
2023-02-25T13:17:04.795Z,98531.69
2023-02-25T13:20:10.926Z,98527.00
2023-02-25T13:23:03.102Z,98524.97
2023-02-25T13:25:53.084Z,98521.09
2023-02-25T13:28:49.886Z,98520.47
2023-02-25T13:31:28.490Z,98523.38
2023-02-25T13:34:34.974Z,98518.34
2023-02-25T13:37:38.273Z,98521.91
2023-02-25T13:40:42.635Z,98515.25
2023-02-25T13:43:44.412Z,98516.63
2023-02-25T13:46:20.066Z,98495.53
2023-02-25T13:49:09.566Z,98510.00
2023-02-25T13:52:11.355Z,98519.00
2023-02-25T13:55:17.031Z,98519.06
2023-02-25T13:58:13.645Z,98531.38
2023-02-25T14:00:58.491Z,98529.13
2023-02-25T14:03:59.376Z,98553.16
2023-02-25T14:06:50.998Z,98553.53
2023-02-25T14:09:50.335Z,98562.84
2023-02-25T14:12:38.954Z,98559.94
2023-02-25T14:15:16.632Z,98557.25
2023-02-25T14:18:10.782Z,98563.06
2023-02-25T14:21:16.500Z,98569.94
2023-02-25T14:24:32.312Z,98565.91
2023-02-25T14:27:27.467Z,98565.75
2023-02-25T14:30:15.837Z,98557.84
2023-02-25T14:32:46.599Z,98560.28
2023-02-25T14:35:52.195Z,98558.88
2023-02-25T14:38:48.038Z,98565.22
2023-02-25T14:41:17.458Z,98562.34
2023-02-25T14:43:49.114Z,98555.84
2023-02-25T14:46:30.774Z,98579.00
2023-02-25T14:49:06.300Z,98566.94
2023-02-25T14:51:42.337Z,98574.78
2023-02-25T14:54:35.386Z,98563.69
2023-02-25T14:57:54.804Z,98570.44
2023-02-25T15:00:53.390Z,98578.25
2023-02-25T15:03:48.928Z,98587.44
2023-02-25T15:06:36.564Z,98596.13
2023-02-25T15:09:24.647Z,98594.44
2023-02-25T15:12:01.781Z,98596.13
2023-02-25T15:14:40.591Z,98601.91
2023-02-25T15:17:35.371Z,98613.03
2023-02-25T15:20:06.236Z,98620.28
2023-02-25T15:22:33.073Z,98613.16
2023-02-25T15:25:20.620Z,98618.13
2023-02-25T15:27:49.000Z,98615.44
2023-02-25T15:30:21.101Z,98623.53
2023-02-25T15:33:05.583Z,98625.81
2023-02-25T15:35:35.094Z,98617.13
2023-02-25T15:38:07.062Z,98633.66
2023-02-25T15:40:33.808Z,98626.28
2023-02-25T15:43:02.246Z,98638.38
2023-02-25T15:45:29.254Z,98650.19
2023-02-25T15:48:08.034Z,98640.06
2023-02-25T15:50:43.799Z,98644.78
2023-02-25T15:53:11.708Z,98658.28
2023-02-25T15:55:43.399Z,98660.72
2023-02-25T15:58:25.136Z,98658.66
2023-02-25T16:01:02.363Z,98664.81
2023-02-25T16:03:31.533Z,98664.66
2023-02-25T16:06:03.731Z,98677.81
2023-02-25T16:09:00.341Z,98671.28
2023-02-25T16:11:47.589Z,98673.09
2023-02-25T16:14:20.466Z,98688.75
2023-02-25T16:16:59.875Z,98679.09
2023-02-25T16:19:30.928Z,98696.56
2023-02-25T16:22:05.059Z,98695.72
2023-02-25T16:24:32.228Z,98704.81
2023-02-25T16:27:08.650Z,98703.63
2023-02-25T16:29:41.114Z,98712.91
2023-02-25T16:32:26.365Z,98704.03
2023-02-25T16:35:37.367Z,98714.66
2023-02-25T16:38:30.309Z,98712.97
2023-02-25T16:40:59.732Z,98721.84
2023-02-25T16:43:30.262Z,98726.84
2023-02-25T16:46:01.229Z,98725.16
2023-02-25T16:48:33.271Z,98734.50
2023-02-25T16:51:21.397Z,98739.50
2023-02-25T16:53:53.943Z,98736.13
2023-02-25T16:56:32.975Z,98743.44
2023-02-25T16:59:03.153Z,98745.50
2023-02-25T17:01:32.178Z,98761.41
2023-02-25T17:04:30.235Z,98761.50
2023-02-25T17:07:25.157Z,98765.88
2023-02-25T17:09:53.054Z,98769.25
2023-02-25T17:12:25.443Z,98777.72
2023-02-25T17:14:54.026Z,98783.34
2023-02-25T17:17:33.805Z,98778.91
2023-02-25T17:20:02.138Z,98789.91
2023-02-25T17:22:28.679Z,98798.16
2023-02-25T17:24:58.253Z,98793.94
2023-02-25T17:27:25.707Z,98799.88
2023-02-25T17:29:52.380Z,98797.41
2023-02-25T17:32:30.842Z,98803.97
2023-02-25T17:35:02.851Z,98803.50
2023-02-25T17:37:30.883Z,98807.56
2023-02-25T17:39:59.246Z,98818.41
2023-02-25T17:42:41.276Z,98815.47
2023-02-25T17:45:37.463Z,98820.44
2023-02-25T17:48:05.205Z,98828.31
2023-02-25T17:50:33.017Z,98835.31
2023-02-25T17:53:00.142Z,98844.16
2023-02-25T17:55:31.480Z,98843.59
2023-02-25T17:58:00.560Z,98840.94
2023-02-25T18:00:36.073Z,98845.97
2023-02-25T18:03:17.586Z,98846.63
2023-02-25T18:05:51.716Z,98860.41
2023-02-25T18:08:26.179Z,98865.47
2023-02-25T18:10:56.665Z,98864.91
2023-02-25T18:13:33.657Z,98869.91
2023-02-25T18:16:38.458Z,98873.09
2023-02-25T18:19:46.320Z,98879.25
2023-02-25T18:22:37.745Z,98872.41
2023-02-25T18:25:26.703Z,98876.88
2023-02-25T18:27:55.251Z,98884.28
2023-02-25T18:30:24.548Z,98883.13
2023-02-25T18:32:52.199Z,98884.44
2023-02-25T18:35:19.065Z,98885.81
2023-02-25T18:37:47.413Z,98897.38
2023-02-25T18:40:23.697Z,98900.47
2023-02-25T18:42:50.348Z,98910.63
2023-02-25T18:45:21.070Z,98914.75
2023-02-25T18:47:48.389Z,98908.09
2023-02-25T18:50:15.336Z,98915.72
2023-02-25T18:52:42.939Z,98914.63
2023-02-25T18:55:16.763Z,98914.63
2023-02-25T18:57:43.554Z,98915.91
2023-02-25T19:00:11.581Z,98926.94
2023-02-25T19:02:51.179Z,98929.06
2023-02-25T19:05:19.981Z,98934.94
2023-02-25T19:07:47.767Z,98938.69
2023-02-25T19:10:20.529Z,98939.19
2023-02-25T19:12:49.954Z,98942.91
2023-02-25T19:15:19.895Z,98947.44
2023-02-25T19:17:47.833Z,98948.78
2023-02-25T19:20:16.127Z,98949.00
2023-02-25T19:22:45.045Z,98948.25
2023-02-25T19:25:22.011Z,98959.97
2023-02-25T19:27:50.024Z,98963.44
2023-02-25T19:30:19.658Z,98969.56
2023-02-25T19:32:46.114Z,98968.25
2023-02-25T19:35:12.883Z,98971.38
2023-02-25T19:37:41.292Z,98980.88
2023-02-25T19:40:11.736Z,98977.03
2023-02-25T19:42:39.560Z,98980.06
2023-02-25T19:45:08.244Z,98984.22
2023-02-25T19:47:35.071Z,98988.97
2023-02-25T19:50:04.617Z,98997.41
2023-02-25T19:52:31.532Z,99008.22
2023-02-25T19:54:58.196Z,99007.59
2023-02-25T19:57:24.627Z,99011.94
2023-02-25T19:59:51.450Z,99005.44
2023-02-25T20:02:17.859Z,99001.13
2023-02-25T20:04:44.724Z,99003.19
2023-02-25T20:07:11.573Z,99008.69
2023-02-25T20:09:38.134Z,99006.66
2023-02-25T20:12:05.133Z,99009.16
2023-02-25T20:14:33.056Z,99003.56
2023-02-25T20:17:01.381Z,99000.53
2023-02-25T20:19:32.371Z,99013.78
2023-02-25T20:22:01.248Z,99007.72
2023-02-25T20:24:28.236Z,99006.66
2023-02-25T20:26:56.415Z,99015.19
2023-02-25T20:29:23.416Z,99025.97
2023-02-25T20:31:50.116Z,99021.53
2023-02-25T20:34:20.016Z,99022.69
2023-02-25T20:37:22.114Z,99029.56
2023-02-25T20:39:54.376Z,99034.56
2023-02-25T20:42:30.077Z,99042.16
2023-02-25T20:44:58.847Z,99047.41
2023-02-25T20:47:36.352Z,99049.44
2023-02-25T20:50:05.317Z,99056.34
2023-02-25T20:52:32.059Z,99052.69
2023-02-25T20:54:58.514Z,99061.13
2023-02-25T20:57:26.700Z,99058.66
2023-02-25T20:59:54.072Z,99057.94
2023-02-25T21:02:21.578Z,99070.34
2023-02-25T21:04:48.441Z,99071.13
2023-02-25T21:07:15.015Z,99072.50
2023-02-25T21:09:41.686Z,99076.88
2023-02-25T21:12:08.676Z,99076.59
2023-02-25T21:14:35.059Z,99077.91
2023-02-25T21:17:01.632Z,99077.69
2023-02-25T21:19:28.242Z,99074.78
2023-02-25T21:21:54.997Z,99075.75
2023-02-25T21:24:22.192Z,99076.47
2023-02-25T21:26:48.653Z,99078.53
2023-02-25T21:29:15.878Z,99083.09
2023-02-25T21:31:42.620Z,99078.22
2023-02-25T21:34:12.746Z,99089.50
2023-02-25T21:36:40.156Z,99093.19
2023-02-25T21:39:09.146Z,99101.59
2023-02-25T21:41:36.935Z,99101.66
2023-02-25T21:44:03.986Z,99102.03
2023-02-25T21:46:30.479Z,99103.34
2023-02-25T21:48:57.023Z,99099.81
2023-02-25T21:51:25.926Z,99110.72
2023-02-25T21:53:58.193Z,99110.66
2023-02-25T21:56:26.193Z,99100.34
2023-02-25T21:58:55.787Z,99107.78
2023-02-25T22:01:27.181Z,99108.13
2023-02-25T22:03:54.516Z,99108.00
2023-02-25T22:06:23.798Z,99109.84
2023-02-25T22:08:51.485Z,99107.22
2023-02-25T22:11:23.419Z,99113.53
2023-02-25T22:13:52.921Z,99120.38
2023-02-25T22:16:20.653Z,99113.13
2023-02-25T22:18:47.241Z,99118.09
2023-02-25T22:21:17.895Z,99116.09
2023-02-25T22:23:44.946Z,99113.34
2023-02-25T22:26:18.285Z,99121.81
2023-02-25T22:28:45.487Z,99111.28
2023-02-25T22:31:14.578Z,99121.75
2023-02-25T22:33:42.026Z,99123.44
2023-02-25T22:36:09.747Z,99131.88
2023-02-25T22:38:41.845Z,99137.53
2023-02-25T22:41:26.747Z,99134.25
2023-02-25T22:43:53.672Z,99135.09
2023-02-25T22:46:41.060Z,99131.31
2023-02-25T22:49:08.397Z,99137.44
2023-02-25T22:51:42.364Z,99132.53
2023-02-25T22:54:18.117Z,99132.66
2023-02-25T22:56:47.540Z,99138.28
2023-02-25T22:59:14.390Z,99140.97
2023-02-25T23:01:41.213Z,99134.88
2023-02-25T23:04:10.758Z,99132.19
2023-02-25T23:06:44.078Z,99142.06
2023-02-25T23:09:12.921Z,99143.03
2023-02-25T23:11:41.800Z,99146.50
2023-02-25T23:14:08.375Z,99144.16
2023-02-25T23:16:40.224Z,99151.13
2023-02-25T23:19:10.101Z,99145.38
2023-02-25T23:21:38.509Z,99146.47
2023-02-25T23:24:07.485Z,99147.59
2023-02-25T23:26:39.119Z,99150.63
2023-02-25T23:29:08.222Z,99154.31
2023-02-25T23:31:38.070Z,99138.00
2023-02-25T23:34:09.285Z,99149.25
2023-02-25T23:36:40.565Z,99150.03
2023-02-25T23:39:08.557Z,99157.66
2023-02-25T23:41:36.652Z,99146.22
2023-02-25T23:44:03.880Z,99156.38
2023-02-25T23:46:32.018Z,99151.13
2023-02-25T23:49:02.407Z,99160.69
2023-02-25T23:51:29.784Z,99159.66
2023-02-25T23:53:59.705Z,99164.94
2023-02-25T23:56:27.149Z,99165.88
2023-02-25T23:58:54.999Z,99166.59
